Shelley, United Kingdom
Current Conditions -  °F | °C
As of 3:20 PM on Wednesday 22 Oct 2014 (Local Time) from EGNM Reporting Station
Light Rain Light Rain  
Wind Chill: 50°   Ceiling: 900
Heat Index: 50°   Visibility: 6mi
Dew Point: 48°   Wind: 16mph
Humidity: 94%   Direction: 260°W
Pressure: 30.12"   Gusts: NA
Location:  53.6°N, 1.68°W
Report Text: EGNM 221420Z 26014KT 220V290 9999 -RADZ SCT007 BKN009 10/09 Q1020
Loading
Personal Weather Stations






























Interactive Weather Map
Tropical Storm Tracking
New forecast layout! Learn more

10-Day Weather Forecast

Advertisements
Track Severe Weather on mobile